Terminal Aerodrome Forecast
Issued by NWS

Home | Current Version | Previous Version | Text Only | Print | Product List | Glossary On
Versions: 1 2 3 4 5 6 7 8 9 10 11 12 13 14 15 16 17 18
666
FTUS43 KAPX 112320
TAFPLN
TAF
KPLN 112320Z 1200/1224 27009KT 6SM -SHSN SCT025 OVC040
      TEMPO 1200/1204 2SM -SHSN BKN025
     FM120400 27010KT 3SM -SHSN SCT015 OVC025
     FM121400 32015G25KT 3SM -SHSN BLSN SCT015 OVC025=

USA.gov is the U.S. government's official web portal to all federal, state and local government web resources and services.